Eglinton Real Estate, NSW, 2795 Bathurst Regional

Thinking about buying in Eglinton? Now could not be a better time, with a whopping 1315 properties either residential or commercial there's certainly plenty to choose from.

The average property price for this area is $547,000 with prices in this suburb ranging from $194,000 to $896,000.

Distance to the coast is 150 Km.

Eglinton Real Estate Market Outlook

In Eglinton there has been a history of lower than average prices and demand, offering opportunities for investors or first home owners, especially in the context of the growth in working from home. Low average incomes in Eglinton is reflected in smaller and lower quality accommodation. Over time this may change providsing long-term returns but in the short to medium term, prices are likely to be less than state averages. A mix of professions and above average income earners in Eglinton provides good demand. The lower than average housing turnover of these people also means fewer regular listings leading to periodic large price increases. Lower than average population density constrains growth in Eglinton to an extent. However, where buyers are willing to compromise on housing and lifestyle choice, there are affordable options. Higher than average industry presence in the wider area offering local employment yet with not a large negative impact on local amenity, provides good demand and price growth.

About

For Sale

One Agency 14 MAXWELL DR, EGLINTON, NSW, 2795 4 2 2 $770,000-$830,000
professionals 98 HAMILTON ST, EGLINTON, NSW, 2795 4 2 4 $795,000 - $845,000
professionals 11 PEARD CL, EGLINTON, NSW, 2795 5 3 2 $890,000 - $940,000
professionals 30 DARLING ST, EGLINTON, NSW, 2795 4 2 4 $890,000 - $930,000

More

Local Schools


Eglinton Public School

(While the above schools are located with the suburb of Eglinton there may also be nearby schools whose catchments cover this suburb)

Local Crime Stats


Average Local Climate by month


(mm)
RAIN
Min (°C)
TEMP
Max (°C)
TEMP
Min (%)
HUMIDITY
Max (%)
HUMIDITY
(m/sec)
WIND
(MJ/sq m)
SOLAR
Jan2.113.127.939.693.91.622.0
Feb4.711.924.247.0951.818.7
Mar3.510.12250.795.71.615.4
Apr0.95.519.84596.01.414.0
May1.21.414.850.095.91.410.6
Jun1.40.911.658.996.21.48.6
Jul1.5-0.411.851.093.81.710.1
Aug2.2-0.412.445.393.61.912.4
Sept1.9216.540.694.31.816.4
Oct1.85.820.141.494.51.619.0
Nov2.77.723.334.792.32.023
Dec2.310.625.736.791.31.923.5

source: Australian Government Bureau of Meteorology

Recently Sold

22-04-2022 $680,000 11 DINGER CL EGLINTON 2795
19-04-2022 $715,000 65 ALEXANDER ST EGLINTON 2795
12-04-2022 $450,000 12 CARROL AVE EGLINTON 2795
11-04-2022 $930,000 3 KEMP ST EGLINTON 2795
08-04-2022 $1,055,000 54 LOREN ST EGLINTON 2795
08-04-2022 $590,000 18 LOGAN ST EGLINTON 2795
06-04-2022 $695,000 10 VICTORIA ST EGLINTON 2795
05-04-2022 $210,000 4 ROTHERY ST EGLINTON 2795
30-03-2022 $1,000,000 15 COTTONWOOD DR EGLINTON 2795
29-03-2022 $651,000 45 HAMILTON ST EGLINTON 2795
24-03-2022 $680,000 2 MAXWELL DR EGLINTON 2795
21-03-2022 $689,000 28 COX LANE EGLINTON 2795
15-03-2022 $815,000 23 COX LANE EGLINTON 2795
15-03-2022 $510,000 14 WILLOTT CL EGLINTON 2795
15-03-2022 $789,000 20 CARROL AVE EGLINTON 2795
09-03-2022 $540,000 5 KEMP ST EGLINTON 2795
08-03-2022 $655,000 25 MAXWELL DR EGLINTON 2795
07-03-2022 $860,000 12 KEMP ST EGLINTON 2795
07-03-2022 $635,000 20 PARRAWEENA PL EGLINTON 2795
04-03-2022 $885,000 28 FRASER DR EGLINTON 2795
01-03-2022 $770,000 100 HAMILTON ST EGLINTON 2795
01-03-2022 $800,000 5 LEW AVE EGLINTON 2795
25-02-2022 $586,000 43 HAMILTON ST EGLINTON 2795
25-02-2022 $650,000 14 COX LANE EGLINTON 2795
14-02-2022 $680,000 20 LEW AVE EGLINTON 2795
14-02-2022 $875,000 2 RANKENS BRIDGE RD EGLINTON 2795
07-02-2022 $750,000 6 HAMILTON ST EGLINTON 2795
27-01-2022 $355,000 27 LEW AVE EGLINTON 2795
21-01-2022 $610,000 17 PEACOCK ST EGLINTON 2795
19-01-2022 $620,000 36 ALEXANDER ST EGLINTON 2795
18-01-2022 $625,000 54 HOLLYHOCK PL EGLINTON 2795
14-01-2022 $730,000 2 SALTRAM CCT EGLINTON 2795
14-01-2022 $550,000 55 HAMILTON ST EGLINTON 2795
14-01-2022 $820,000 24 DARLING ST EGLINTON 2795
17-12-2021 $1,800,000 487 ELEVEN MILE DR EGLINTON 2795
14-12-2021 $815,000 8 KEMP ST EGLINTON 2795
09-12-2021 $680,000 4 POOLE ST EGLINTON 2795
09-12-2021 $705,000 35 LEW AVE EGLINTON 2795
07-12-2021 $505,000 15 LOREN ST EGLINTON 2795
06-12-2021 $769,000 11 KEMP ST EGLINTON 2795
24-11-2021 $766,000 13 LEW AVE EGLINTON 2795
22-11-2021 $750,000 12 HOBSON CL EGLINTON 2795
22-11-2021 $600,000 11 ALEXANDER ST EGLINTON 2795
17-11-2021 $555,000 73 LOREN ST EGLINTON 2795
12-11-2021 $590,000 9 LAMONT PL EGLINTON 2795
02-11-2021 $635,000 75 ALEXANDER ST EGLINTON 2795
01-11-2021 $585,000 19 RANKEN ST EGLINTON 2795
27-10-2021 $600,000 4 ALEXANDER ST EGLINTON 2795
22-10-2021 $595,000 3 OATES PL EGLINTON 2795
08-10-2021 $520,000 1 RANKEN ST EGLINTON 2795

Residz covers 12m+ Australian properties and brings together a wealth of data to give you a better understanding of an area. From crime and schools to bush fire, flood risk and more. Begin your search for properties for sale or learn more about where you currently reside. Residz is an exciting next-generation Real Estate platform getting better by the day!